Time;durP1;ratioP1;P1;durP2;ratioP2;P2;SDS_P1;SDS_P2;PMS_P1;PMS_P2;Temp;Humidity;BMP_temperature;BMP_pressure;BME280_temperature;BME280_humidity;BME280_pressure;Samples;Min_cycle;Max_cycle;Signal;HPM_P1;HPM_P2
2021/09/02 00:05:17;;;;;;;5.50;3.03;;;19.60;71.50;;;;;;10444665;28;20229;-65
2021/09/02 00:10:39;;;;;;;6.07;2.97;;;19.60;70.40;;;;;;10454651;28;20189;-65
2021/09/02 00:16:01;;;;;;;4.23;2.93;;;19.60;71.50;;;;;;10447863;28;20217;-65
2021/09/02 00:21:25;;;;;;;5.37;3.43;;;19.60;71.80;;;;;;10453664;28;20677;-65
2021/09/02 00:26:47;;;;;;;4.47;2.83;;;19.50;72.20;;;;;;10454457;28;20224;-66
2021/09/02 00:32:10;;;;;;;6.13;3.50;;;19.50;71.20;;;;;;10453497;28;20570;-66
2021/09/02 00:37:34;;;;;;;4.93;3.20;;;19.60;71.60;;;;;;10453275;28;20222;-65
2021/09/02 00:42:56;;;;;;;5.80;3.40;;;19.50;72.00;;;;;;10448624;28;20217;-65
2021/09/02 00:48:18;;;;;;;5.90;3.13;;;19.50;72.40;;;;;;10453776;28;20247;-66
2021/09/02 00:53:42;;;;;;;6.73;3.57;;;19.50;71.90;;;;;;10453445;28;20193;-65
2021/09/02 00:59:04;;;;;;;3.33;2.73;;;19.50;72.20;;;;;;10452852;28;20236;-65
2021/09/02 01:04:26;;;;;;;5.13;2.83;;;19.50;72.50;;;;;;10451565;28;20263;-65
2021/09/02 01:09:49;;;;;;;7.50;3.30;;;19.40;72.70;;;;;;10452137;28;20223;-62
2021/09/02 01:15:14;;;;;;;5.03;3.10;;;19.40;72.20;;;;;;10451933;28;20550;-66
2021/09/02 01:20:36;;;;;;;4.13;3.03;;;19.50;72.00;;;;;;10451285;28;20212;-65
2021/09/02 01:25:59;;;;;;;3.83;2.83;;;19.40;72.30;;;;;;10451625;28;20217;-65
2021/09/02 01:31:22;;;;;;;4.37;3.20;;;19.40;72.60;;;;;;10451584;28;20197;-65
2021/09/02 01:36:44;;;;;;;4.10;2.93;;;19.40;72.60;;;;;;10451856;28;20224;-65
2021/09/02 01:42:13;;;;;;;4.03;3.10;;;19.40;71.90;;;;;;10450607;28;20208;-65
2021/09/02 01:47:35;;;;;;;4.60;2.97;;;19.50;72.60;;;;;;10451172;28;20343;-65
2021/09/02 01:52:58;;;;;;;4.03;2.80;;;19.40;72.70;;;;;;10450135;28;20802;-65
2021/09/02 01:58:22;;;;;;;3.47;2.90;;;19.30;72.70;;;;;;10451068;28;20236;-65
2021/09/02 02:03:44;;;;;;;5.53;3.43;;;19.40;72.70;;;;;;10450480;28;20235;-67
2021/09/02 02:09:06;;;;;;;4.87;2.70;;;19.30;72.80;;;;;;10448410;28;20243;-65
2021/09/02 02:14:30;;;;;;;5.37;3.03;;;19.40;73.10;;;;;;10450080;28;20189;-64
2021/09/02 02:19:52;;;;;;;3.20;2.40;;;19.30;72.80;;;;;;10448880;28;20236;-66
2021/09/02 02:25:15;;;;;;;3.93;2.63;;;19.30;72.60;;;;;;10444586;28;20213;-65
2021/09/02 02:30:39;;;;;;;5.43;2.93;;;19.30;72.50;;;;;;10448553;28;20204;-65
2021/09/02 02:36:01;;;;;;;6.17;3.03;;;19.30;72.50;;;;;;10449695;28;20728;-65
2021/09/02 02:41:23;;;;;;;7.53;2.93;;;19.30;72.40;;;;;;10453085;28;20673;-65
2021/09/02 02:46:47;;;;;;;4.53;3.00;;;19.20;72.30;;;;;;10458916;28;20217;-66
2021/09/02 02:52:09;;;;;;;3.63;2.57;;;19.30;72.40;;;;;;10457794;28;20195;-65
2021/09/02 02:57:32;;;;;;;4.70;2.67;;;19.20;72.20;;;;;;10457822;28;20224;-67
2021/09/02 03:02:55;;;;;;;4.80;2.73;;;19.20;72.20;;;;;;10458224;28;20228;-66
2021/09/02 03:08:17;;;;;;;4.17;2.50;;;19.20;72.10;;;;;;10457529;28;20220;-65
2021/09/02 03:13:40;;;;;;;5.57;2.70;;;19.20;72.00;;;;;;10457214;28;20196;-66
2021/09/02 03:19:04;;;;;;;4.10;2.97;;;19.20;71.80;;;;;;10456669;28;20304;-65
2021/09/02 03:24:26;;;;;;;3.50;2.37;;;19.20;71.80;;;;;;10456371;28;20226;-65
2021/09/02 03:29:48;;;;;;;4.83;2.60;;;19.20;71.70;;;;;;10456305;28;20208;-65
2021/09/02 03:35:12;;;;;;;3.97;2.87;;;19.20;71.60;;;;;;10455858;28;20196;-65
2021/09/02 03:40:34;;;;;;;4.30;2.50;;;19.20;71.50;;;;;;10456572;28;20294;-65
2021/09/02 03:45:56;;;;;;;4.47;2.93;;;19.20;71.40;;;;;;10455938;28;20624;-65
2021/09/02 03:51:19;;;;;;;4.03;2.80;;;19.20;71.40;;;;;;10455721;28;20704;-65
2021/09/02 03:56:41;;;;;;;5.00;2.67;;;19.20;71.40;;;;;;10456356;28;20231;-65
2021/09/02 04:02:04;;;;;;;4.20;2.83;;;19.20;71.30;;;;;;10455196;28;20212;-65
2021/09/02 04:07:27;;;;;;;4.57;2.87;;;19.20;71.30;;;;;;10455306;28;20216;-65
2021/09/02 04:12:50;;;;;;;5.80;3.43;;;19.20;71.90;;;;;;10455323;28;20197;-65
2021/09/02 04:18:12;;;;;;;5.67;3.50;;;19.20;71.30;;;;;;10455555;28;20227;-65
2021/09/02 04:23:36;;;;;;;5.73;3.50;;;19.20;71.30;;;;;;10454935;28;20220;-65
2021/09/02 04:28:58;;;;;;;7.80;3.87;;;19.20;71.90;;;;;;10454542;28;20259;-65
2021/09/02 04:34:20;;;;;;;7.10;3.87;;;19.20;72.70;;;;;;10413736;28;20186;-65
2021/09/02 04:39:44;;;;;;;5.97;4.17;;;19.20;72.20;;;;;;10445619;28;20228;-66
2021/09/02 04:45:07;;;;;;;8.60;3.80;;;19.10;72.00;;;;;;10453533;28;20732;-65
2021/09/02 04:50:29;;;;;;;6.37;3.77;;;19.10;72.70;;;;;;10452284;28;20196;-66
2021/09/02 04:55:52;;;;;;;5.00;3.50;;;19.20;72.40;;;;;;10452737;28;20226;-63
2021/09/02 05:01:14;;;;;;;6.37;3.93;;;19.10;71.90;;;;;;10452725;28;20220;-66
2021/09/02 05:06:36;;;;;;;5.43;3.67;;;19.10;71.60;;;;;;10453253;28;20228;-65
2021/09/02 05:12:00;;;;;;;4.93;3.07;;;19.10;72.40;;;;;;10451952;28;20189;-65
2021/09/02 05:17:22;;;;;;;3.83;3.27;;;19.20;72.70;;;;;;10452059;28;20624;-66
2021/09/02 05:22:46;;;;;;;3.93;3.23;;;19.10;72.00;;;;;;10456000;28;20220;-65
2021/09/02 05:28:09;;;;;;;5.03;2.83;;;19.10;71.70;;;;;;10452291;28;20221;-65
2021/09/02 05:33:32;;;;;;;3.47;2.87;;;19.10;71.40;;;;;;10452031;28;20709;-65
2021/09/02 05:38:54;;;;;;;3.07;2.67;;;19.10;71.20;;;;;;10451509;28;20209;-65
2021/09/02 05:44:17;;;;;;;3.37;2.43;;;19.10;71.00;;;;;;10451682;28;20224;-65
2021/09/02 05:49:40;;;;;;;3.20;2.60;;;19.10;70.90;;;;;;10451749;28;20245;-65
2021/09/02 05:55:02;;;;;;;2.57;2.13;;;19.10;70.90;;;;;;10446211;28;20201;-58
2021/09/02 06:00:25;;;;;;;2.37;2.13;;;19.10;70.90;;;;;;10542013;22;20231;-66
2021/09/02 06:05:47;;;;;;;3.00;2.20;;;19.10;71.00;;;;;;10522056;28;20199;-65
2021/09/02 06:11:09;;;;;;;2.73;2.53;;;19.10;71.00;;;;;;10526137;28;20212;-64
2021/09/02 06:16:33;;;;;;;3.00;2.33;;;19.10;71.00;;;;;;10531417;28;20199;-63
2021/09/02 06:21:55;;;;;;;2.20;2.00;;;19.10;70.50;;;;;;10517410;28;20227;-67
2021/09/02 06:27:17;;;;;;;2.30;2.10;;;19.00;70.30;;;;;;10531628;28;20198;-65
2021/09/02 06:32:41;;;;;;;1.63;1.53;;;19.00;70.60;;;;;;10535606;28;20748;-65
2021/09/02 06:38:05;;;;;;;1.70;1.60;;;19.00;70.50;;;;;;10534031;28;20192;-64
2021/09/02 06:43:27;;;;;;;1.67;1.57;;;19.10;70.60;;;;;;10524666;28;20282;-66
2021/09/02 06:48:50;;;;;;;1.50;1.40;;;19.10;71.40;;;;;;10539122;28;20207;-66
2021/09/02 06:54:13;;;;;;;2.37;1.30;;;19.20;72.30;;;;;;10540315;28;20211;-65
2021/09/02 06:59:35;;;;;;;1.40;1.30;;;19.20;72.50;;;;;;10521922;28;20808;-66
2021/09/02 07:04:58;;;;;;;1.40;1.30;;;19.20;72.80;;;;;;10501803;28;20227;-65
2021/09/02 07:10:21;;;;;;;1.43;1.10;;;19.20;72.70;;;;;;10526680;28;20216;-66
2021/09/02 07:15:43;;;;;;;1.40;1.30;;;19.20;73.00;;;;;;10522937;28;20199;-66
2021/09/02 07:21:06;;;;;;;1.60;1.20;;;19.20;73.00;;;;;;10536195;28;20220;-66
2021/09/02 07:26:28;;;;;;;1.20;1.10;;;19.20;72.40;;;;;;10537193;28;20196;-65
2021/09/02 07:31:51;;;;;;;1.60;1.17;;;19.30;73.10;;;;;;10497125;28;20212;-66
2021/09/02 07:37:15;;;;;;;2.10;1.30;;;19.30;73.00;;;;;;10496489;28;20205;-65
2021/09/02 07:42:37;;;;;;;1.20;1.10;;;19.30;73.00;;;;;;10533613;28;20281;-64
2021/09/02 07:47:59;;;;;;;1.40;1.17;;;19.30;73.00;;;;;;10537539;28;20210;-63
2021/09/02 07:53:22;;;;;;;1.27;1.13;;;19.30;72.50;;;;;;10534861;28;20706;-66
2021/09/02 07:58:44;;;;;;;1.10;1.00;;;19.30;73.00;;;;;;10517098;28;20224;-65
2021/09/02 08:04:07;;;;;;;1.33;1.20;;;19.30;73.10;;;;;;10532012;28;20215;-65
2021/09/02 08:09:30;;;;;;;1.47;1.37;;;19.30;72.60;;;;;;10536770;28;20218;-65
2021/09/02 08:14:52;;;;;;;1.60;1.17;;;19.40;73.10;;;;;;10536737;28;20188;-64
2021/09/02 08:20:16;;;;;;;1.30;1.10;;;19.30;73.50;;;;;;10515005;28;20212;-66
2021/09/02 08:25:39;;;;;;;1.27;1.10;;;19.30;73.40;;;;;;10522330;28;20231;-65
2021/09/02 08:31:01;;;;;;;1.03;0.93;;;19.40;72.20;;;;;;10535094;28;20219;-64
2021/09/02 08:36:24;;;;;;;1.23;1.03;;;19.40;73.30;;;;;;10536873;28;20195;-66
2021/09/02 08:41:47;;;;;;;2.07;1.30;;;19.40;73.00;;;;;;10513936;28;20226;-65
2021/09/02 08:47:11;;;;;;;1.10;1.00;;;19.50;72.00;;;;;;10514069;28;20567;-67
2021/09/02 08:52:33;;;;;;;2.10;0.90;;;19.50;73.00;;;;;;10531711;28;20219;-67
2021/09/02 08:57:57;;;;;;;1.20;1.10;;;19.50;73.10;;;;;;10538907;28;20231;-69
2021/09/02 09:03:20;;;;;;;1.20;1.10;;;19.50;71.60;;;;;;10531274;28;20231;-68
2021/09/02 09:08:42;;;;;;;1.10;1.00;;;19.50;72.90;;;;;;10501109;28;20196;-66
2021/09/02 09:14:07;;;;;;;2.27;1.00;;;19.50;73.30;;;;;;10529778;28;20196;-66
2021/09/02 09:19:38;;;;;;;1.47;1.30;;;19.50;72.50;;;;;;10533250;28;20216;-67
2021/09/02 09:25:03;;;;;;;1.93;1.27;;;19.50;73.10;;;;;;10532899;28;20222;-67
2021/09/02 09:30:28;;;;;;;1.53;1.40;;;19.40;73.30;;;;;;10532652;28;20749;-65
2021/09/02 09:35:56;;;;;;;2.30;1.43;;;19.40;71.70;;;;;;10529274;28;20196;-64
2021/09/02 09:41:31;;;;;;;1.40;1.20;;;19.50;72.90;;;;;;10508733;28;20694;-66
2021/09/02 09:47:15;;;;;;;1.73;1.10;;;19.40;73.20;;;;;;10509805;28;20184;-66
2021/09/02 09:52:41;;;;;;;1.73;1.50;;;19.50;71.40;;;;;;10518209;28;20219;-66
2021/09/02 09:58:03;;;;;;;1.47;1.30;;;19.50;72.90;;;;;;10529804;28;20215;-66
2021/09/02 10:03:29;;;;;;;2.13;1.40;;;19.40;73.20;;;;;;10493727;28;20221;-65
2021/09/02 10:08:51;;;;;;;1.47;1.37;;;19.40;72.30;;;;;;10514218;28;20693;-67
2021/09/02 10:14:13;;;;;;;1.20;1.10;;;19.40;73.20;;;;;;10532618;28;20203;-66
2021/09/02 10:19:37;;;;;;;1.50;1.40;;;19.40;73.30;;;;;;10519383;28;20222;-66
2021/09/02 10:24:59;;;;;;;2.73;1.63;;;19.40;72.50;;;;;;10532383;28;20212;-68
2021/09/02 10:30:26;;;;;;;1.47;1.37;;;19.40;73.40;;;;;;10519831;28;20723;-66
2021/09/02 10:35:49;;;;;;;1.93;1.20;;;19.40;73.20;;;;;;10532771;28;20711;-67
2021/09/02 10:41:12;;;;;;;1.90;1.70;;;19.40;72.60;;;;;;10531769;28;20575;-66
2021/09/02 10:46:39;;;;;;;2.00;1.53;;;19.40;72.60;;;;;;10496143;28;20292;-66
2021/09/02 10:52:04;;;;;;;2.37;1.77;;;19.40;73.00;;;;;;10530104;28;20693;-68
2021/09/02 10:57:37;;;;;;;2.07;1.60;;;19.40;72.90;;;;;;10530975;28;20719;-66
2021/09/02 11:03:13;;;;;;;3.37;1.83;;;19.40;73.00;;;;;;10503936;28;20271;-66
2021/09/02 11:08:39;;;;;;;2.83;2.07;;;19.40;73.20;;;;;;10513607;28;20290;-63
2021/09/02 11:14:01;;;;;;;2.30;1.90;;;19.40;73.00;;;;;;10494283;28;20189;-67
2021/09/02 11:19:33;;;;;;;2.00;1.80;;;19.40;72.40;;;;;;10514820;28;20583;-65
2021/09/02 11:24:57;;;;;;;2.73;2.13;;;19.40;72.90;;;;;;10531812;28;20684;-65
2021/09/02 11:30:23;;;;;;;2.40;2.00;;;19.40;73.10;;;;;;10529733;28;20223;-64
2021/09/02 11:35:56;;;;;;;2.00;1.80;;;19.50;72.40;;;;;;10524582;28;20583;-65
2021/09/02 11:41:20;;;;;;;2.00;1.77;;;19.50;73.00;;;;;;10488386;28;20228;-67
2021/09/02 11:46:42;;;;;;;2.50;1.90;;;19.40;73.10;;;;;;10527990;28;20294;-64
2021/09/02 11:52:06;;;;;;;2.57;2.20;;;19.40;72.10;;;;;;10530208;28;20682;-63
2021/09/02 11:57:29;;;;;;;3.60;2.50;;;19.40;72.80;;;;;;10531276;28;20949;-64
2021/09/02 12:02:55;;;;;;;3.13;2.60;;;19.40;73.10;;;;;;10530707;28;20249;-67
2021/09/02 12:08:17;;;;;;;2.43;2.17;;;19.40;72.30;;;;;;10530797;28;20206;-66
2021/09/02 12:13:41;;;;;;;2.70;2.17;;;19.40;73.00;;;;;;10488112;28;20201;-66
2021/09/02 12:19:04;;;;;;;3.33;2.60;;;19.40;73.20;;;;;;10487920;28;20730;-64
2021/09/02 12:24:33;;;;;;;2.97;2.20;;;19.40;72.20;;;;;;10491916;28;20219;-66
2021/09/02 12:29:57;;;;;;;2.40;2.20;;;19.40;72.80;;;;;;10501171;28;20283;-66
2021/09/02 12:35:20;;;;;;;3.13;2.43;;;19.40;73.20;;;;;;10488564;28;20254;-66
2021/09/02 12:40:42;;;;;;;2.80;2.50;;;19.40;72.50;;;;;;10507543;28;20917;-67
2021/09/02 12:46:05;;;;;;;2.63;2.10;;;19.50;72.70;;;;;;10495502;28;20216;-66
2021/09/02 12:51:28;;;;;;;2.80;2.33;;;19.50;73.20;;;;;;10515471;28;20262;-65
2021/09/02 12:56:50;;;;;;;3.47;2.80;;;19.40;73.00;;;;;;10514452;28;20551;-66
2021/09/02 13:02:13;;;;;;;2.77;2.50;;;19.50;72.90;;;;;;10487588;28;20231;-64
2021/09/02 13:07:35;;;;;;;3.53;3.17;;;19.50;73.30;;;;;;10461048;22;20451;-65
2021/09/02 13:12:59;;;;;;;3.83;3.43;;;19.80;72.20;;;;;;10449374;28;20216;-66
2021/09/02 13:18:22;;;;;;;8.07;4.10;;;19.60;72.40;;;;;;10455312;28;20215;-67
2021/09/02 13:23:44;;;;;;;5.83;4.27;;;19.50;73.00;;;;;;10489191;28;20706;-68
2021/09/02 13:29:06;;;;;;;9.18;5.70;;;19.50;73.10;;;;;;10467016;28;20434;-66
2021/09/02 13:34:30;;;;;;;6.17;4.63;;;19.60;71.80;;;;;;10490753;28;20188;-67
2021/09/02 13:39:52;;;;;;;6.33;4.63;;;19.60;72.60;;;;;;10484997;28;20223;-67
2021/09/02 13:45:15;;;;;;;6.23;4.40;;;19.50;72.90;;;;;;10488938;28;20220;-67
2021/09/02 13:50:38;;;;;;;7.00;4.73;;;19.40;71.80;;;;;;10490446;28;20231;-66
2021/09/02 13:56:00;;;;;;;5.07;4.43;;;19.50;72.40;;;;;;10489725;28;20193;-65
2021/09/02 14:01:22;;;;;;;7.33;4.97;;;19.50;72.90;;;;;;10486357;28;20227;-66
2021/09/02 14:06:46;;;;;;;5.83;4.30;;;19.50;72.80;;;;;;10490845;28;20338;-66
2021/09/02 14:12:08;;;;;;;6.50;4.47;;;19.50;71.90;;;;;;10491127;28;20217;-66
2021/09/02 14:17:30;;;;;;;6.63;4.73;;;19.50;72.80;;;;;;10490633;28;20853;-66
2021/09/02 14:22:54;;;;;;;4.87;4.30;;;19.40;73.00;;;;;;10488017;28;20579;-67
2021/09/02 14:28:16;;;;;;;5.30;4.57;;;19.40;72.20;;;;;;10489890;28;20200;-66
2021/09/02 14:33:38;;;;;;;5.60;4.17;;;19.50;72.00;;;;;;10489600;28;20199;-65
2021/09/02 14:39:02;;;;;;;7.53;4.47;;;19.40;72.60;;;;;;10496285;28;20208;-66
2021/09/02 14:44:24;;;;;;;5.13;4.27;;;19.40;72.80;;;;;;10497604;28;20228;-66
2021/09/02 14:49:46;;;;;;;4.50;3.80;;;19.40;71.90;;;;;;10491205;28;20216;-66
2021/09/02 14:55:11;;;;;;;5.73;4.53;;;19.40;72.30;;;;;;10492420;28;20192;-66
2021/09/02 15:00:33;;;;;;;4.40;4.00;;;19.40;72.80;;;;;;10491094;28;20216;-66
2021/09/02 15:05:55;;;;;;;6.63;3.83;;;19.40;72.50;;;;;;10497107;28;20552;-66
2021/09/02 15:11:19;;;;;;;5.40;4.57;;;19.50;71.60;;;;;;10495144;28;20576;-65
2021/09/02 15:16:41;;;;;;;5.07;4.27;;;19.40;72.30;;;;;;10495927;28;20196;-65
2021/09/02 15:22:08;;;;;;;4.83;3.97;;;19.40;72.80;;;;;;10496934;28;20718;-65
2021/09/02 15:27:32;;;;;;;5.70;4.23;;;19.40;72.20;;;;;;10494951;28;20556;-65
2021/09/02 15:32:54;;;;;;;4.93;4.00;;;19.50;71.30;;;;;;10492302;28;20221;-66
2021/09/02 15:38:16;;;;;;;6.23;4.67;;;19.40;72.20;;;;;;10495549;28;20192;-64
2021/09/02 15:43:40;;;;;;;5.23;4.03;;;19.40;72.50;;;;;;10496404;28;20208;-61
2021/09/02 15:49:02;;;;;;;5.00;4.03;;;19.40;71.80;;;;;;10495918;28;20216;-65
2021/09/02 15:54:24;;;;;;;5.87;4.60;;;19.50;72.50;;;;;;10496870;28;20356;-65
2021/09/02 15:59:48;;;;;;;4.07;3.67;;;19.40;73.50;;;;;;10495648;28;20216;-65
2021/09/02 16:05:10;;;;;;;4.67;4.17;;;19.40;72.20;;;;;;10495498;28;20216;-65
2021/09/02 16:10:35;;;;;;;4.50;3.47;;;19.40;71.50;;;;;;10494777;28;20220;-65
2021/09/02 16:15:59;;;;;;;5.80;4.40;;;19.40;72.40;;;;;;10494801;28;20267;-65
2021/09/02 16:21:21;;;;;;;5.13;4.20;;;19.40;72.70;;;;;;10494135;28;20595;-64
2021/09/02 16:26:43;;;;;;;4.90;3.97;;;19.40;71.60;;;;;;10493428;28;20226;-65
2021/09/02 16:32:07;;;;;;;4.97;4.47;;;19.40;71.60;;;;;;10493112;28;20321;-65
2021/09/02 16:37:30;;;;;;;5.87;4.50;;;19.40;72.40;;;;;;10493704;28;20567;-65
2021/09/02 16:42:53;;;;;;;4.60;4.03;;;19.40;72.50;;;;;;10493535;28;20216;-63
2021/09/02 16:48:17;;;;;;;4.30;3.83;;;19.50;71.60;;;;;;10494366;28;20671;-66
2021/09/02 16:53:39;;;;;;;4.93;4.20;;;19.40;72.40;;;;;;10492340;28;20683;-65
2021/09/02 16:59:01;;;;;;;6.33;3.87;;;19.40;72.70;;;;;;10490907;28;20220;-65
2021/09/02 17:04:24;;;;;;;4.57;3.80;;;19.40;71.70;;;;;;10492762;28;20211;-64
2021/09/02 17:09:46;;;;;;;4.57;4.13;;;19.50;71.80;;;;;;10493104;28;20224;-64
2021/09/02 17:15:10;;;;;;;4.00;3.60;;;19.40;72.40;;;;;;10511614;28;20198;-65
2021/09/02 17:20:33;;;;;;;4.37;3.90;;;19.40;72.40;;;;;;10521785;28;20212;-65
2021/09/02 17:25:55;;;;;;;5.07;4.57;;;19.40;71.30;;;;;;10484705;28;20449;-66
2021/09/02 17:31:17;;;;;;;4.33;3.93;;;19.80;70.90;;;;;;10487218;28;20260;-66
2021/09/02 17:36:41;;;;;;;4.83;3.80;;;19.60;71.60;;;;;;10492149;28;20192;-66
2021/09/02 17:42:04;;;;;;;5.60;4.03;;;19.50;72.00;;;;;;10488952;28;20231;-66
2021/09/02 17:47:26;;;;;;;4.17;3.77;;;19.50;72.10;;;;;;10450518;28;20572;-66
2021/09/02 17:52:49;;;;;;;4.40;4.00;;;19.50;72.70;;;;;;10449668;28;20675;-66
2021/09/02 17:58:12;;;;;;;4.67;3.60;;;19.50;72.90;;;;;;10449937;28;20196;-66
2021/09/02 18:03:34;;;;;;;5.50;4.70;;;19.50;71.60;;;;;;10456097;28;20438;-66
2021/09/02 18:08:57;;;;;;;4.37;3.70;;;19.70;71.70;;;;;;10490475;28;20212;-67
2021/09/02 18:14:20;;;;;;;4.70;4.30;;;19.60;72.10;;;;;;10489503;28;20411;-66
2021/09/02 18:19:42;;;;;;;4.88;4.38;;;19.90;70.60;;;;;;10488710;28;20423;-66
2021/09/02 18:25:06;;;;;;;4.80;3.80;;;20.10;69.00;;;;;;10492173;28;20212;-67
2021/09/02 18:30:28;;;;;;;4.37;3.70;;;19.80;70.80;;;;;;10489448;28;20678;-67
2021/09/02 18:35:50;;;;;;;5.00;4.03;;;19.60;71.60;;;;;;10491461;28;20201;-67
2021/09/02 18:41:16;;;;;;;4.03;3.40;;;19.60;71.40;;;;;;10489787;28;20217;-66
2021/09/02 18:46:39;;;;;;;4.07;3.50;;;19.60;70.70;;;;;;10494907;28;20212;-66
2021/09/02 18:52:02;;;;;;;4.43;3.57;;;19.50;71.70;;;;;;10530301;28;20218;-67
2021/09/02 18:57:27;;;;;;;4.03;3.63;;;19.50;72.10;;;;;;10531094;28;20237;-64
2021/09/02 19:02:50;;;;;;;3.97;3.57;;;19.50;71.60;;;;;;10493727;28;20220;-64
2021/09/02 19:08:13;;;;;;;4.23;3.83;;;19.50;70.80;;;;;;10511100;22;20224;-69
2021/09/02 19:13:36;;;;;;;4.50;3.73;;;19.50;71.80;;;;;;10483745;28;20208;-68
2021/09/02 19:18:58;;;;;;;4.97;3.80;;;19.50;72.20;;;;;;10507050;28;20229;-69
2021/09/02 19:24:20;;;;;;;4.23;3.50;;;19.50;71.60;;;;;;10529717;28;20221;-69
2021/09/02 19:29:46;;;;;;;4.33;3.80;;;19.50;71.20;;;;;;10522825;28;20207;-69
2021/09/02 19:35:10;;;;;;;4.27;3.30;;;19.50;72.10;;;;;;10536110;28;20188;-69
2021/09/02 19:40:33;;;;;;;4.97;4.07;;;19.50;72.30;;;;;;10538844;28;20211;-69
2021/09/02 19:45:57;;;;;;;4.57;3.80;;;19.50;71.40;;;;;;10538814;28;20208;-69
2021/09/02 19:51:20;;;;;;;4.13;3.73;;;19.50;71.30;;;;;;10538862;28;20886;-69
2021/09/02 19:56:45;;;;;;;4.30;3.90;;;19.50;72.10;;;;;;10538981;28;20262;-69
2021/09/02 20:02:15;;;;;;;3.90;3.30;;;19.50;72.30;;;;;;10536059;28;20203;-69
2021/09/02 20:07:38;;;;;;;4.00;3.60;;;19.50;71.20;;;;;;10536369;28;20216;-69
2021/09/02 20:13:02;;;;;;;3.93;3.57;;;19.50;71.70;;;;;;10532553;28;20210;-69
2021/09/02 20:18:26;;;;;;;4.33;3.47;;;19.50;72.20;;;;;;10534298;28;20351;-69
2021/09/02 20:23:50;;;;;;;3.97;3.57;;;19.50;72.10;;;;;;10533595;28;20581;-69
2021/09/02 20:29:13;;;;;;;3.80;3.50;;;19.50;71.00;;;;;;10536382;28;20710;-69
2021/09/02 20:34:36;;;;;;;3.80;3.50;;;19.50;71.90;;;;;;10537110;28;20203;-70
2021/09/02 20:40:06;;;;;;;3.60;3.27;;;19.40;72.50;;;;;;10537986;28;20298;-70
2021/09/02 20:45:30;;;;;;;3.70;3.40;;;19.50;72.40;;;;;;10537593;28;20223;-69
2021/09/02 20:50:54;;;;;;;3.90;3.50;;;19.50;71.00;;;;;;10537215;28;20719;-69
2021/09/02 20:56:16;;;;;;;5.23;3.80;;;19.50;71.90;;;;;;10537720;28;20656;-69
2021/09/02 21:01:39;;;;;;;4.07;3.50;;;19.50;72.30;;;;;;10535266;28;20718;-70
2021/09/02 21:07:04;;;;;;;4.17;3.23;;;19.50;71.60;;;;;;10535612;28;20233;-70
2021/09/02 21:12:27;;;;;;;3.63;3.33;;;19.50;72.00;;;;;;10534991;28;20657;-69
2021/09/02 21:17:50;;;;;;;4.33;3.40;;;19.50;72.50;;;;;;10536374;28;20580;-69
2021/09/02 21:23:17;;;;;;;4.17;3.77;;;19.40;72.40;;;;;;10535420;28;20200;-69
2021/09/02 21:28:46;;;;;;;4.10;3.70;;;19.50;71.30;;;;;;10534358;28;20226;-69
2021/09/02 21:34:18;;;;;;;4.47;3.40;;;19.50;72.30;;;;;;10535307;28;20188;-69
2021/09/02 21:39:49;;;;;;;3.57;3.27;;;19.50;72.60;;;;;;10534203;28;20566;-70
2021/09/02 21:45:16;;;;;;;3.70;3.40;;;19.50;72.00;;;;;;10533974;28;20572;-69
2021/09/02 21:50:39;;;;;;;3.47;3.17;;;19.50;71.60;;;;;;10534714;28;20580;-69
2021/09/02 21:56:03;;;;;;;4.00;3.60;;;19.50;72.40;;;;;;10534987;28;20797;-69
2021/09/02 22:01:26;;;;;;;4.00;3.60;;;19.40;72.40;;;;;;10534161;28;20241;-70
2021/09/02 22:06:48;;;;;;;4.10;3.53;;;19.50;71.90;;;;;;10534706;28;20215;-70
2021/09/02 22:12:13;;;;;;;3.77;3.43;;;19.50;71.90;;;;;;10534676;28;20202;-69
2021/09/02 22:17:41;;;;;;;4.10;3.40;;;19.40;72.50;;;;;;10534540;28;20211;-69
2021/09/02 22:23:06;;;;;;;4.70;3.40;;;19.40;72.70;;;;;;10533961;28;20199;-70
2021/09/02 22:28:35;;;;;;;3.50;3.20;;;19.40;71.50;;;;;;10518222;28;20231;-70
2021/09/02 22:33:59;;;;;;;3.47;3.17;;;19.40;72.30;;;;;;10493508;28;20193;-70
2021/09/02 22:39:23;;;;;;;3.73;3.33;;;19.40;72.60;;;;;;10493024;28;20216;-69
2021/09/02 22:44:47;;;;;;;3.80;3.30;;;19.40;72.40;;;;;;10493212;28;20219;-69
2021/09/02 22:50:10;;;;;;;4.37;3.60;;;19.50;72.40;;;;;;10521586;28;20599;-69
2021/09/02 22:55:32;;;;;;;3.60;3.30;;;19.40;72.90;;;;;;10533842;28;20199;-69
2021/09/02 23:00:56;;;;;;;4.10;3.63;;;19.40;72.90;;;;;;10541053;28;20317;-70
2021/09/02 23:06:24;;;;;;;4.00;3.60;;;19.40;71.90;;;;;;10541533;28;20218;-70
2021/09/02 23:11:51;;;;;;;3.40;3.10;;;19.50;72.60;;;;;;10540948;28;20247;-70
2021/09/02 23:17:23;;;;;;;3.90;3.53;;;19.40;72.90;;;;;;10540241;28;20659;-69
2021/09/02 23:22:46;;;;;;;4.00;3.50;;;19.40;72.60;;;;;;10529425;28;20192;-70
2021/09/02 23:28:11;;;;;;;4.20;3.50;;;19.50;71.70;;;;;;10540054;28;20226;-69
2021/09/02 23:33:35;;;;;;;3.43;3.13;;;19.40;72.60;;;;;;10540634;28;20191;-70
2021/09/02 23:38:59;;;;;;;3.97;3.53;;;19.40;72.70;;;;;;10540790;28;20274;-69
2021/09/02 23:44:21;;;;;;;4.33;3.90;;;19.40;72.40;;;;;;10538910;28;20196;-70
2021/09/02 23:49:45;;;;;;;5.27;3.70;;;19.40;72.60;;;;;;10540093;28;20220;-69
2021/09/02 23:55:09;;;;;;;4.10;3.70;;;19.40;73.10;;;;;;10539665;28;20575;-69
